Time;durP1;ratioP1;P1;durP2;ratioP2;P2;SDS_P1;SDS_P2;PMS_P1;PMS_P2;Temp;Humidity;BMP_temperature;BMP_pressure;BME280_temperature;BME280_humidity;BME280_pressure;Samples;Min_cycle;Max_cycle;Signal;HPM_P1;HPM_P2
2022/12/25 00:03:59;;;;;;;30.8;22.3;;;;;;;6.2;86.4;98930;;;;
2022/12/25 00:14:59;;;;;;;26.3;19.1;;;;;;;6.2;86.7;98940;;;;
2022/12/25 00:25:59;;;;;;;26.3;19.1;;;;;;;6.3;86.9;98940;;;;
2022/12/25 00:35:59;;;;;;;26.3;19.1;;;;;;;6.3;87.1;98950;;;;
2022/12/25 00:45:59;;;;;;;20;15.8;;;;;;;6.3;86.9;98960;;;;
2022/12/25 00:55:59;;;;;;;20;15.8;;;;;;;6.2;87.1;98980;;;;
2022/12/25 01:06:59;;;;;;;20;15.8;;;;;;;6.2;87.4;99000;;;;
2022/12/25 01:17:59;;;;;;;21.7;14.3;;;;;;;6.2;87.5;99020;;;;
2022/12/25 01:27:59;;;;;;;21.7;14.3;;;;;;;6.1;87.7;99020;;;;
2022/12/25 01:38:59;;;;;;;21.7;14.3;;;;;;;6.1;88.2;99040;;;;
2022/12/25 01:48:59;;;;;;;20.9;13.4;;;;;;;6.2;88.2;99040;;;;
2022/12/25 01:58:59;;;;;;;20.9;13.4;;;;;;;6.2;88.2;99030;;;;
2022/12/25 02:09:59;;;;;;;20.9;13.4;;;;;;;6.2;88;99040;;;;
2022/12/25 02:19:59;;;;;;;21.4;14.7;;;;;;;6.2;88.2;99060;;;;
2022/12/25 02:30:59;;;;;;;21.4;14.7;;;;;;;6.1;88.4;99060;;;;
2022/12/25 02:41:59;;;;;;;19.8;16;;;;;;;6.2;88.7;99070;;;;
2022/12/25 03:12:59;;;;;;;19.9;14.7;;;;;;;6.2;89;99090;;;;
2022/12/25 03:35:31;;;;;;;19.9;14.7;;;;;;;5.9;88.4;99080;;;;
2022/12/25 04:38:59;;;;;;;18;12.7;;;;;;;4.9;89.3;99120;;;;
2022/12/25 04:48:59;;;;;;;19.3;12.1;;;;;;;5.1;89.9;99140;;;;
2022/12/25 04:58:59;;;;;;;19.3;12.1;;;;;;;5.2;90.3;99150;;;;
2022/12/25 05:09:00;;;;;;;19.3;12.1;;;;;;;5.3;90.5;99150;;;;
2022/12/25 05:19:59;;;;;;;19.1;12.9;;;;;;;5.5;90.8;99150;;;;
2022/12/25 05:29:59;;;;;;;19.1;12.9;;;;;;;5.6;90.8;99160;;;;
2022/12/25 05:39:59;;;;;;;19.1;12.9;;;;;;;5.6;90.7;99160;;;;
2022/12/25 05:50:59;;;;;;;17.7;12.9;;;;;;;5.6;90.6;99170;;;;
2022/12/25 06:00:59;;;;;;;17.7;12.9;;;;;;;5.5;90.5;99190;;;;
2022/12/25 06:10:59;;;;;;;16.7;11.8;;;;;;;5.7;90.8;99210;;;;
2022/12/25 06:20:59;;;;;;;16.7;11.8;;;;;;;5.8;90.7;99200;;;;
2022/12/25 06:31:59;;;;;;;16.7;11.8;;;;;;;5.8;90.4;99220;;;;
2022/12/25 06:41:59;;;;;;;16.4;11.8;;;;;;;5.9;90.1;99220;;;;
2022/12/25 06:52:59;;;;;;;16.4;11.8;;;;;;;5.9;89.8;99250;;;;
2022/12/25 07:03:59;;;;;;;16.4;11.8;;;;;;;6;89.7;99270;;;;
2022/12/25 07:14:59;;;;;;;24.6;15.3;;;;;;;6;89.6;99290;;;;
2022/12/25 07:24:59;;;;;;;24.6;15.3;;;;;;;6;89.6;99300;;;;
2022/12/25 07:34:59;;;;;;;24.6;15.3;;;;;;;6.2;89.8;99330;;;;
2022/12/25 07:45:59;;;;;;;17.2;13.3;;;;;;;6.3;89.8;99330;;;;
2022/12/25 07:56:59;;;;;;;17.2;13.3;;;;;;;6.5;89.6;99350;;;;
2022/12/25 08:06:59;;;;;;;17.2;13.3;;;;;;;6.7;89.2;99360;;;;
2022/12/25 08:16:59;;;;;;;32.1;22.8;;;;;;;6.9;89;99360;;;;
2022/12/25 08:28:00;;;;;;;32.1;22.8;;;;;;;7.1;88.5;99360;;;;
2022/12/25 08:37:59;;;;;;;32.1;22.8;;;;;;;7.4;88.1;99360;;;;
2022/12/25 08:48:59;;;;;;;37.6;27.8;;;;;;;7.7;87;99350;;;;
2022/12/25 08:59:59;;;;;;;37.6;27.8;;;;;;;8.1;86.6;99340;;;;
2022/12/25 09:09:59;;;;;;;37.6;27.8;;;;;;;8.5;85.8;99350;;;;
2022/12/25 09:21:00;;;;;;;27.1;19;;;;;;;8.8;84.9;99380;;;;
2022/12/25 09:31:59;;;;;;;27.1;19;;;;;;;9.3;82.8;99380;;;;
2022/12/25 09:43:00;;;;;;;24;20;;;;;;;9.4;81;99400;;;;
2022/12/25 09:54:00;;;;;;;24;20;;;;;;;9.5;80.9;99400;;;;
2022/12/25 10:03:59;;;;;;;24;20;;;;;;;9.2;81;99400;;;;
2022/12/25 10:14:00;;;;;;;27.4;20.6;;;;;;;9.4;81.3;99410;;;;
2022/12/25 10:24:59;;;;;;;27.4;20.6;;;;;;;9.5;79.9;99400;;;;
2022/12/25 10:35:00;;;;;;;27.4;20.6;;;;;;;9.7;78.9;99380;;;;
2022/12/25 10:46:00;;;;;;;18.1;14.1;;;;;;;10;78.2;99370;;;;
2022/12/25 10:55:59;;;;;;;18.1;14.1;;;;;;;10;75;99370;;;;
2022/12/25 11:06:59;;;;;;;18.1;14.1;;;;;;;9.9;75.5;99340;;;;
2022/12/25 11:18:00;;;;;;;14.6;11.2;;;;;;;10;75.3;99330;;;;
2022/12/25 11:29:00;;;;;;;14.6;11.2;;;;;;;10.4;75.2;99310;;;;
2022/12/25 11:39:59;;;;;;;14.6;11.2;;;;;;;10.3;73.1;99310;;;;
2022/12/25 11:51:00;;;;;;;12.9;9.9;;;;;;;10.5;73.4;99310;;;;
2022/12/25 12:02:00;;;;;;;12.9;9.9;;;;;;;10.6;73.1;99320;;;;
2022/12/25 12:12:00;;;;;;;14.1;8.5;;;;;;;10.7;72.4;99300;;;;
2022/12/25 12:23:00;;;;;;;14.1;8.5;;;;;;;10.8;72.1;99300;;;;
2022/12/25 12:33:00;;;;;;;14.1;8.5;;;;;;;10.7;72.2;99310;;;;
2022/12/25 12:43:00;;;;;;;14.9;8.9;;;;;;;10.6;71.9;99300;;;;
2022/12/25 12:52:59;;;;;;;14.9;8.9;;;;;;;10.5;72.1;99300;;;;
2022/12/25 13:04:00;;;;;;;14.9;8.9;;;;;;;10.3;72.5;99290;;;;
2022/12/25 13:15:00;;;;;;;12.9;9.2;;;;;;;10.2;72.7;99290;;;;
2022/12/25 13:26:00;;;;;;;12.9;9.2;;;;;;;10;72.9;99280;;;;
2022/12/25 13:36:00;;;;;;;12.9;9.2;;;;;;;9.7;73.4;99310;;;;
2022/12/25 13:46:00;;;;;;;14.8;8.7;;;;;;;9.2;74.4;99300;;;;
2022/12/25 13:57:00;;;;;;;14.8;8.7;;;;;;;8.8;75.1;99290;;;;
2022/12/25 14:06:59;;;;;;;14.8;8.7;;;;;;;8.3;75.8;99300;;;;
2022/12/25 14:17:00;;;;;;;19.1;15.1;;;;;;;7.8;76.4;99300;;;;
2022/12/25 14:28:00;;;;;;;19.1;15.1;;;;;;;7.2;78.2;99280;;;;
2022/12/25 14:38:00;;;;;;;19.1;15.1;;;;;;;6.8;79.8;99300;;;;
2022/12/25 14:49:00;;;;;;;13.8;9.2;;;;;;;6.3;81.2;99300;;;;
2022/12/25 14:59:01;;;;;;;13.8;9.2;;;;;;;5.9;81.4;99280;;;;
2022/12/25 15:09:00;;;;;;;13.8;9.2;;;;;;;5.8;84.4;99270;;;;
2022/12/25 15:20:00;;;;;;;18.1;12.2;;;;;;;5.5;84.5;99290;;;;
2022/12/25 15:31:00;;;;;;;18.1;12.2;;;;;;;5;84.5;99310;;;;
2022/12/25 15:42:15;;;;;;;34.8;23.5;;;;;;;4.8;85.5;99320;;;;
2022/12/25 15:53:00;;;;;;;34.8;23.5;;;;;;;4.6;85.7;99320;;;;
2022/12/25 16:04:00;;;;;;;34.8;23.5;;;;;;;4.3;86.1;99290;;;;
2022/12/25 16:14:00;;;;;;;18.5;12.7;;;;;;;4.3;87.5;99280;;;;
2022/12/25 16:24:00;;;;;;;18.5;12.7;;;;;;;4.5;88.2;99250;;;;
2022/12/25 16:35:00;;;;;;;18.5;12.7;;;;;;;4.6;88.5;99250;;;;
2022/12/25 16:45:00;;;;;;;17.9;14.1;;;;;;;4.5;88;99250;;;;
2022/12/25 16:55:00;;;;;;;17.9;14.1;;;;;;;4.3;87.1;99270;;;;
2022/12/25 17:05:00;;;;;;;17.9;14.1;;;;;;;4.1;86.9;99280;;;;
2022/12/25 17:15:00;;;;;;;40.8;31.9;;;;;;;4;87;99250;;;;
2022/12/25 17:26:00;;;;;;;40.8;31.9;;;;;;;4;87.5;99240;;;;
2022/12/25 17:36:00;;;;;;;40.8;31.9;;;;;;;4;87.9;99220;;;;
2022/12/25 17:47:00;;;;;;;56.9;37.5;;;;;;;3.9;87.6;99190;;;;
2022/12/25 17:57:00;;;;;;;56.9;37.5;;;;;;;3.7;87.5;99180;;;;
2022/12/25 18:08:00;;;;;;;56.9;37.5;;;;;;;3.6;87.4;99190;;;;
2022/12/25 18:18:00;;;;;;;51.2;33.9;;;;;;;3.4;87.7;99180;;;;
2022/12/25 18:28:00;;;;;;;51.2;33.9;;;;;;;3.3;88.1;99200;;;;
2022/12/25 18:39:00;;;;;;;51.2;33.9;;;;;;;3.4;88.7;99190;;;;
2022/12/25 18:50:00;;;;;;;48.7;31.9;;;;;;;3.5;88.9;99210;;;;
2022/12/25 19:01:00;;;;;;;48.7;31.9;;;;;;;3.5;88.9;99190;;;;
2022/12/25 19:12:00;;;;;;;40;28;;;;;;;3.6;88.8;99180;;;;
2022/12/25 19:22:00;;;;;;;40;28;;;;;;;3.6;88.7;99170;;;;
2022/12/25 19:32:00;;;;;;;40;28;;;;;;;3.7;88.6;99170;;;;
2022/12/25 19:43:00;;;;;;;56.7;37.1;;;;;;;3.8;88.6;99170;;;;
2022/12/25 19:53:00;;;;;;;56.7;37.1;;;;;;;3.7;88.8;99170;;;;
2022/12/25 20:03:00;;;;;;;56.7;37.1;;;;;;;3.8;88.8;99170;;;;
2022/12/25 20:13:00;;;;;;;47.8;34.5;;;;;;;3.8;88.5;99150;;;;
2022/12/25 20:24:00;;;;;;;47.8;34.5;;;;;;;3.7;88.4;99120;;;;
2022/12/25 20:34:00;;;;;;;47.8;34.5;;;;;;;3.7;88.6;99120;;;;
2022/12/25 20:44:00;;;;;;;46.6;33;;;;;;;3.6;88.3;99100;;;;
2022/12/25 20:54:00;;;;;;;46.6;33;;;;;;;3.5;88.3;99100;;;;
2022/12/25 21:05:01;;;;;;;46.6;33;;;;;;;3.5;88.3;99090;;;;
2022/12/25 21:16:00;;;;;;;43.3;30.1;;;;;;;3.3;88.7;99080;;;;
2022/12/25 21:27:00;;;;;;;43.3;30.1;;;;;;;3.2;89.4;99070;;;;
2022/12/25 21:38:00;;;;;;;43.3;30.1;;;;;;;3.1;89.6;99040;;;;
2022/12/25 21:48:00;;;;;;;35.2;22.7;;;;;;;3;89.5;99040;;;;
2022/12/25 21:59:00;;;;;;;35.2;22.7;;;;;;;2.8;89.5;99020;;;;
2022/12/25 22:10:00;;;;;;;33.6;22;;;;;;;2.7;89.7;99010;;;;
2022/12/25 22:20:00;;;;;;;33.6;22;;;;;;;2.7;89.8;99030;;;;
2022/12/25 22:30:00;;;;;;;33.6;22;;;;;;;2.8;90;99030;;;;
2022/12/25 22:41:00;;;;;;;34;22.1;;;;;;;2.7;90.3;99000;;;;
2022/12/25 22:52:01;;;;;;;34;22.1;;;;;;;2.8;90.2;98970;;;;
2022/12/25 23:02:00;;;;;;;34;22.1;;;;;;;2.7;90.2;98980;;;;
2022/12/25 23:12:00;;;;;;;30.6;21.9;;;;;;;2.8;90.2;98960;;;;
2022/12/25 23:33:00;;;;;;;30.6;21.9;;;;;;;3.1;90.2;98940;;;;
2022/12/25 23:44:00;;;;;;;37.6;26.9;;;;;;;3.1;89.9;98950;;;;
2022/12/25 23:54:00;;;;;;;37.6;26.9;;;;;;;3;89.6;98930;;;;
